SKW3016 KSAN-KSLC
Flight info
| Callsign | SKW3016 |
|---|---|
| Flight time | 1h 22m |
| Altitude | 38000 |
| Route | ZZOOO4 MTBAL CADEZ HAKMN/N0463F370 Q73 LAKRR MLF QWENN6 |
| Aircraft | E75L/M-SDE3GILORVW/S |
Departure
| Time | 2026-05-04 20:17 |
|---|---|
| Airport | San Diego International Airport (KSAN) |
Arrival
| Time | 2026-05-04 21:40 |
|---|---|
| Airport | Salt Lake City International Airport (KSLC) |
| Time | Latitude | Longitude | Altitude | Speed | Heading |
|---|---|---|---|---|---|
| 2026-05-04 19:39 | 32.73348 | -117.20063 | 19 ft | 0 kts | 263° |
| 2026-05-04 20:07 | 32.73349 | -117.20053 | 19 ft | 2 kts | 263° |
| 2026-05-04 20:07 | 32.73351 | -117.20036 | 19 ft | 2 kts | 263° |
| 2026-05-04 20:07 | 32.73353 | -117.20017 | 19 ft | 2 kts | 263° |
| 2026-05-04 20:07 | 32.73354 | -117.20000 | 19 ft | 2 kts | 287° |
| 2026-05-04 20:08 | 32.73344 | -117.19988 | 19 ft | 2 kts | 341° |
| 2026-05-04 20:08 | 32.73337 | -117.19986 | 19 ft | 0 kts | 358° |
| 2026-05-04 20:10 | 32.73338 | -117.19986 | 19 ft | 0 kts | 358° |
| 2026-05-04 20:10 | 32.73354 | -117.19983 | 19 ft | 4 kts | 11° |
| 2026-05-04 20:10 | 32.73398 | -117.19971 | 19 ft | 7 kts | 13° |
| 2026-05-04 20:11 | 32.73449 | -117.19956 | 19 ft | 7 kts | 22° |
| 2026-05-04 20:11 | 32.73473 | -117.19903 | 19 ft | 9 kts | 90° |
| 2026-05-04 20:11 | 32.73455 | -117.19802 | 19 ft | 13 kts | 106° |
| 2026-05-04 20:11 | 32.73428 | -117.19690 | 20 ft | 14 kts | 106° |
| 2026-05-04 20:12 | 32.73400 | -117.19572 | 21 ft | 15 kts | 106° |
| 2026-05-04 20:12 | 32.73367 | -117.19437 | 22 ft | 18 kts | 106° |
| 2026-05-04 20:12 | 32.73331 | -117.19291 | 22 ft | 18 kts | 106° |
| 2026-05-04 20:12 | 32.73294 | -117.19136 | 21 ft | 20 kts | 106° |
| 2026-05-04 20:13 | 32.73254 | -117.18971 | 20 ft | 21 kts | 106° |
| 2026-05-04 20:13 | 32.73212 | -117.18797 | 20 ft | 22 kts | 106° |
| 2026-05-04 20:13 | 32.73167 | -117.18613 | 19 ft | 23 kts | 106° |
| 2026-05-04 20:13 | 32.73121 | -117.18420 | 19 ft | 24 kts | 106° |
| 2026-05-04 20:14 | 32.73073 | -117.18225 | 19 ft | 25 kts | 106° |
| 2026-05-04 20:14 | 32.73024 | -117.18024 | 19 ft | 25 kts | 107° |
| 2026-05-04 20:14 | 32.72980 | -117.17839 | 22 ft | 19 kts | 105° |
| 2026-05-04 20:14 | 32.72951 | -117.17708 | 24 ft | 11 kts | 92° |
| 2026-05-04 20:15 | 32.72958 | -117.17659 | 25 ft | 4 kts | 75° |
| 2026-05-04 20:15 | 32.72980 | -117.17597 | 25 ft | 10 kts | 44° |
| 2026-05-04 20:15 | 32.73028 | -117.17614 | 26 ft | 5 kts | 286° |
| 2026-05-04 20:15 | 32.73030 | -117.17623 | 26 ft | 0 kts | 285° |
| 2026-05-04 20:16 | 32.73030 | -117.17624 | 26 ft | 0 kts | 285° |
| 2026-05-04 20:16 | 32.73054 | -117.17725 | 24 ft | 42 kts | 285° |
| 2026-05-04 20:17 | 32.73197 | -117.18308 | 20 ft | 102 kts | 286° |
| 2026-05-04 20:17 | 32.73445 | -117.19316 | 70 ft | 143 kts | 288° |
| 2026-05-04 20:17 | 32.73766 | -117.20438 | 531 ft | 149 kts | 288° |
| 2026-05-04 20:17 | 32.74050 | -117.21619 | 1082 ft | 152 kts | 285° |
| 2026-05-04 20:18 | 32.74335 | -117.22880 | 1528 ft | 172 kts | 285° |
| 2026-05-04 20:18 | 32.74683 | -117.24376 | 1833 ft | 203 kts | 285° |
| 2026-05-04 20:18 | 32.75088 | -117.26087 | 2262 ft | 228 kts | 285° |
| 2026-05-04 20:18 | 32.75348 | -117.27983 | 2970 ft | 240 kts | 263° |
| 2026-05-04 20:19 | 32.74627 | -117.29717 | 3832 ft | 247 kts | 224° |
| 2026-05-04 20:19 | 32.73101 | -117.30588 | 4735 ft | 252 kts | 187° |
| 2026-05-04 20:19 | 32.71378 | -117.30197 | 5585 ft | 258 kts | 156° |
| 2026-05-04 20:19 | 32.69786 | -117.29198 | 6382 ft | 262 kts | 153° |
| 2026-05-04 20:20 | 32.68196 | -117.28127 | 7158 ft | 266 kts | 153° |
| 2026-05-04 20:20 | 32.66622 | -117.27037 | 7964 ft | 267 kts | 153° |
| 2026-05-04 20:20 | 32.65022 | -117.25912 | 8759 ft | 267 kts | 154° |
| 2026-05-04 20:20 | 32.63647 | -117.24435 | 9493 ft | 280 kts | 124° |
| 2026-05-04 20:21 | 32.63013 | -117.22184 | 9987 ft | 299 kts | 101° |
| 2026-05-04 20:21 | 32.62733 | -117.19673 | 10367 ft | 315 kts | 99° |
| 2026-05-04 20:21 | 32.62212 | -117.14269 | 11082 ft | 346 kts | 99° |
| 2026-05-04 20:22 | 32.61988 | -117.11398 | 11446 ft | 361 kts | 91° |
| 2026-05-04 20:22 | 32.62519 | -117.08429 | 11786 ft | 377 kts | 70° |
| 2026-05-04 20:22 | 32.63482 | -117.05495 | 12113 ft | 390 kts | 69° |
| 2026-05-04 20:22 | 32.64481 | -117.02451 | 12529 ft | 398 kts | 69° |
| 2026-05-04 20:23 | 32.65482 | -116.99391 | 13034 ft | 404 kts | 69° |
| 2026-05-04 20:23 | 32.66428 | -116.96236 | 13497 ft | 408 kts | 79° |
| 2026-05-04 20:23 | 32.66689 | -116.92911 | 14019 ft | 408 kts | 91° |
| 2026-05-04 20:23 | 32.66777 | -116.89556 | 14598 ft | 410 kts | 91° |
| 2026-05-04 20:24 | 32.66859 | -116.86163 | 15074 ft | 415 kts | 91° |
| 2026-05-04 20:24 | 32.66941 | -116.82755 | 15606 ft | 418 kts | 91° |
| 2026-05-04 20:24 | 32.67197 | -116.79311 | 15997 ft | 427 kts | 76° |
| 2026-05-04 20:24 | 32.68430 | -116.76122 | 16442 ft | 431 kts | 52° |
| 2026-05-04 20:25 | 32.70560 | -116.73610 | 16882 ft | 429 kts | 29° |
| 2026-05-04 20:25 | 32.73225 | -116.72173 | 17378 ft | 422 kts | 14° |
| 2026-05-04 20:25 | 32.75954 | -116.70956 | 17868 ft | 425 kts | 16° |
| 2026-05-04 20:25 | 32.78738 | -116.69631 | 18307 ft | 430 kts | 17° |
| 2026-05-04 20:26 | 32.81511 | -116.68285 | 18703 ft | 436 kts | 17° |
| 2026-05-04 20:26 | 32.84346 | -116.66901 | 18994 ft | 443 kts | 18° |
| 2026-05-04 20:26 | 32.87223 | -116.65489 | 19395 ft | 447 kts | 17° |
| 2026-05-04 20:26 | 32.90078 | -116.64089 | 19726 ft | 453 kts | 18° |
| 2026-05-04 20:27 | 32.93025 | -116.62641 | 20160 ft | 456 kts | 17° |
| 2026-05-04 20:27 | 32.95964 | -116.61198 | 20485 ft | 462 kts | 17° |
| 2026-05-04 20:27 | 32.98928 | -116.59740 | 20913 ft | 464 kts | 17° |
| 2026-05-04 20:27 | 33.01957 | -116.58223 | 21255 ft | 470 kts | 19° |
| 2026-05-04 20:28 | 33.04929 | -116.56670 | 21591 ft | 474 kts | 19° |
| 2026-05-04 20:28 | 33.07915 | -116.55109 | 21645 ft | 457 kts | 18° |
| 2026-05-04 20:28 | 33.10848 | -116.53579 | 21671 ft | 471 kts | 19° |
| 2026-05-04 20:28 | 33.13929 | -116.51968 | 21774 ft | 482 kts | 19° |
| 2026-05-04 20:29 | 33.16985 | -116.50366 | 22171 ft | 483 kts | 18° |
| 2026-05-04 20:29 | 33.20071 | -116.48751 | 22577 ft | 484 kts | 19° |
| 2026-05-04 20:29 | 33.23146 | -116.47138 | 22912 ft | 487 kts | 18° |
| 2026-05-04 20:29 | 33.26282 | -116.45494 | 23192 ft | 492 kts | 18° |
| 2026-05-04 20:30 | 33.29427 | -116.43843 | 23474 ft | 496 kts | 19° |
| 2026-05-04 20:30 | 33.32600 | -116.42176 | 23691 ft | 501 kts | 19° |
| 2026-05-04 20:30 | 33.35778 | -116.40504 | 24072 ft | 502 kts | 18° |
| 2026-05-04 20:30 | 33.38908 | -116.38622 | 24370 ft | 510 kts | 32° |
| 2026-05-04 20:31 | 33.41478 | -116.35738 | 24770 ft | 513 kts | 52° |
| 2026-05-04 20:31 | 33.43563 | -116.32299 | 25200 ft | 511 kts | 56° |
| 2026-05-04 20:31 | 33.45639 | -116.28825 | 25524 ft | 512 kts | 56° |
| 2026-05-04 20:31 | 33.47720 | -116.25354 | 25944 ft | 511 kts | 56° |
| 2026-05-04 20:32 | 33.49776 | -116.21921 | 26300 ft | 511 kts | 57° |
| 2026-05-04 20:32 | 33.51855 | -116.18442 | 26612 ft | 512 kts | 57° |
| 2026-05-04 20:32 | 33.53928 | -116.14976 | 26930 ft | 513 kts | 58° |
| 2026-05-04 20:32 | 33.55985 | -116.11531 | 27252 ft | 514 kts | 57° |
| 2026-05-04 20:33 | 33.58054 | -116.08063 | 27616 ft | 513 kts | 57° |
| 2026-05-04 20:33 | 33.60200 | -116.04611 | 27932 ft | 516 kts | 52° |
| 2026-05-04 20:33 | 33.62681 | -116.01506 | 28253 ft | 517 kts | 44° |
| 2026-05-04 20:33 | 33.65297 | -115.98530 | 28543 ft | 519 kts | 44° |
| 2026-05-04 20:34 | 33.67873 | -115.95573 | 28863 ft | 519 kts | 45° |
| 2026-05-04 20:34 | 33.70482 | -115.92571 | 29154 ft | 520 kts | 45° |
| 2026-05-04 20:34 | 33.73088 | -115.89569 | 29470 ft | 521 kts | 44° |
| 2026-05-04 20:34 | 33.75713 | -115.86542 | 29834 ft | 521 kts | 44° |
| 2026-05-04 20:35 | 33.78325 | -115.83528 | 30144 ft | 522 kts | 44° |
| 2026-05-04 20:35 | 33.80919 | -115.80531 | 30413 ft | 524 kts | 43° |
| 2026-05-04 20:35 | 33.83540 | -115.77501 | 30701 ft | 525 kts | 44° |
| 2026-05-04 20:35 | 33.86205 | -115.74416 | 30966 ft | 527 kts | 43° |
| 2026-05-04 20:36 | 33.88848 | -115.71356 | 31242 ft | 528 kts | 44° |
| 2026-05-04 20:36 | 33.91487 | -115.68296 | 31561 ft | 529 kts | 43° |
| 2026-05-04 20:36 | 33.94182 | -115.65168 | 31860 ft | 529 kts | 42° |
| 2026-05-04 20:36 | 33.96840 | -115.62081 | 32179 ft | 529 kts | 41° |
| 2026-05-04 20:37 | 33.99485 | -115.59008 | 32487 ft | 530 kts | 41° |
| 2026-05-04 20:37 | 34.02132 | -115.55928 | 32764 ft | 531 kts | 41° |
| 2026-05-04 20:37 | 34.04787 | -115.52838 | 32994 ft | 533 kts | 41° |
| 2026-05-04 20:37 | 34.07457 | -115.49724 | 33301 ft | 533 kts | 41° |
| 2026-05-04 20:38 | 34.10141 | -115.46591 | 33646 ft | 534 kts | 41° |
| 2026-05-04 20:38 | 34.12794 | -115.43497 | 33983 ft | 533 kts | 40° |
| 2026-05-04 20:38 | 34.15471 | -115.40383 | 34358 ft | 531 kts | 38° |
| 2026-05-04 20:38 | 34.18309 | -115.37653 | 34759 ft | 522 kts | 26° |
| 2026-05-04 20:39 | 34.21424 | -115.35448 | 35163 ft | 510 kts | 16° |
| 2026-05-04 20:39 | 34.24632 | -115.33708 | 35456 ft | 501 kts | 10° |
| 2026-05-04 20:39 | 34.31287 | -115.31950 | 35777 ft | 478 kts | 352° |
| 2026-05-04 20:40 | 34.34561 | -115.31458 | 36222 ft | 480 kts | 355° |
| 2026-05-04 20:40 | 34.37881 | -115.30837 | 36655 ft | 477 kts | 355° |
| 2026-05-04 20:40 | 34.41132 | -115.30199 | 36985 ft | 476 kts | 355° |
| 2026-05-04 20:40 | 34.44389 | -115.29550 | 37266 ft | 476 kts | 355° |
| 2026-05-04 20:41 | 34.47646 | -115.28901 | 37426 ft | 478 kts | 356° |
| 2026-05-04 20:41 | 34.50969 | -115.28235 | 37572 ft | 480 kts | 356° |
| 2026-05-04 20:41 | 34.54240 | -115.27576 | 37829 ft | 479 kts | 355° |
| 2026-05-04 20:41 | 34.57494 | -115.26922 | 37866 ft | 472 kts | 355° |
| 2026-05-04 20:42 | 34.63960 | -115.25628 | 37897 ft | 475 kts | 355° |
| 2026-05-04 20:42 | 34.70470 | -115.24317 | 37909 ft | 476 kts | 355° |
| 2026-05-04 20:43 | 34.76999 | -115.23000 | 37911 ft | 478 kts | 355° |
| 2026-05-04 20:43 | 34.83529 | -115.21678 | 37922 ft | 471 kts | 355° |
| 2026-05-04 20:44 | 34.90036 | -115.20364 | 37921 ft | 475 kts | 355° |
| 2026-05-04 20:44 | 34.96605 | -115.19035 | 37937 ft | 480 kts | 355° |
| 2026-05-04 20:45 | 35.03114 | -115.17714 | 37929 ft | 472 kts | 355° |
| 2026-05-04 20:45 | 35.09614 | -115.16394 | 37935 ft | 477 kts | 356° |
| 2026-05-04 20:46 | 35.16178 | -115.15057 | 37938 ft | 478 kts | 356° |
| 2026-05-04 20:46 | 35.22686 | -115.13731 | 37921 ft | 478 kts | 356° |
| 2026-05-04 20:47 | 35.29225 | -115.12391 | 37946 ft | 473 kts | 355° |
| 2026-05-04 20:47 | 35.35730 | -115.11063 | 37926 ft | 473 kts | 355° |
| 2026-05-04 20:48 | 35.42267 | -115.09726 | 37921 ft | 481 kts | 356° |
| 2026-05-04 20:48 | 35.45585 | -115.08923 | 37929 ft | 496 kts | 2° |
| 2026-05-04 20:48 | 35.48864 | -115.07523 | 37909 ft | 505 kts | 14° |
| 2026-05-04 20:49 | 35.54963 | -115.03002 | 37934 ft | 522 kts | 33° |
| 2026-05-04 20:49 | 35.57612 | -114.99953 | 37920 ft | 529 kts | 44° |
| 2026-05-04 20:49 | 35.59909 | -114.96414 | 37919 ft | 533 kts | 56° |
| 2026-05-04 20:50 | 35.64491 | -114.89314 | 37901 ft | 533 kts | 46° |
| 2026-05-04 20:50 | 35.69387 | -114.82577 | 37874 ft | 531 kts | 45° |
| 2026-05-04 20:51 | 35.74311 | -114.75835 | 37874 ft | 529 kts | 43° |
| 2026-05-04 20:51 | 35.79233 | -114.69083 | 37891 ft | 527 kts | 44° |
| 2026-05-04 20:52 | 35.84127 | -114.62360 | 37893 ft | 530 kts | 45° |
| 2026-05-04 20:52 | 35.89030 | -114.55603 | 37895 ft | 529 kts | 43° |
| 2026-05-04 20:53 | 35.93943 | -114.48828 | 37906 ft | 531 kts | 43° |
| 2026-05-04 20:53 | 35.98819 | -114.42090 | 37891 ft | 531 kts | 44° |
| 2026-05-04 20:54 | 36.03728 | -114.35287 | 37893 ft | 528 kts | 44° |
| 2026-05-04 20:54 | 36.08970 | -114.29101 | 37894 ft | 518 kts | 27° |
| 2026-05-04 20:55 | 36.15110 | -114.24935 | 37908 ft | 494 kts | 9° |
| 2026-05-04 20:55 | 36.21497 | -114.21563 | 37906 ft | 497 kts | 12° |
| 2026-05-04 20:56 | 36.27781 | -114.18153 | 37896 ft | 495 kts | 12° |
| 2026-05-04 20:56 | 36.34098 | -114.14710 | 37896 ft | 492 kts | 12° |
| 2026-05-04 20:57 | 36.40393 | -114.11279 | 37897 ft | 500 kts | 12° |
| 2026-05-04 20:57 | 36.46665 | -114.07848 | 37880 ft | 490 kts | 12° |
| 2026-05-04 20:58 | 36.52916 | -114.04422 | 37913 ft | 490 kts | 11° |
| 2026-05-04 20:58 | 36.59174 | -114.00990 | 37920 ft | 488 kts | 12° |
| 2026-05-04 20:59 | 36.65400 | -113.97569 | 37902 ft | 489 kts | 12° |
| 2026-05-04 20:59 | 36.71589 | -113.94160 | 37927 ft | 489 kts | 12° |
| 2026-05-04 21:00 | 36.77847 | -113.90711 | 37925 ft | 491 kts | 11° |
| 2026-05-04 21:00 | 36.84042 | -113.87289 | 37935 ft | 493 kts | 12° |
| 2026-05-04 21:01 | 36.90244 | -113.83855 | 37936 ft | 489 kts | 12° |
| 2026-05-04 21:01 | 36.96479 | -113.80394 | 37961 ft | 489 kts | 11° |
| 2026-05-04 21:02 | 37.02685 | -113.76948 | 37966 ft | 488 kts | 11° |
| 2026-05-04 21:02 | 37.08890 | -113.73493 | 37996 ft | 490 kts | 11° |
| 2026-05-04 21:03 | 37.15066 | -113.70052 | 37948 ft | 486 kts | 11° |
| 2026-05-04 21:03 | 37.21257 | -113.66596 | 37991 ft | 491 kts | 12° |
| 2026-05-04 21:04 | 37.27526 | -113.63084 | 37988 ft | 491 kts | 12° |
| 2026-05-04 21:04 | 37.33810 | -113.59560 | 37996 ft | 488 kts | 11° |
| 2026-05-04 21:05 | 37.39997 | -113.56089 | 38035 ft | 491 kts | 12° |
| 2026-05-04 21:05 | 37.46251 | -113.52570 | 38023 ft | 492 kts | 12° |
| 2026-05-04 21:06 | 37.52487 | -113.49056 | 38013 ft | 491 kts | 12° |
| 2026-05-04 21:06 | 37.58759 | -113.45514 | 38022 ft | 492 kts | 13° |
| 2026-05-04 21:07 | 37.64988 | -113.41988 | 38026 ft | 491 kts | 12° |
| 2026-05-04 21:07 | 37.71291 | -113.38417 | 38022 ft | 495 kts | 12° |
| 2026-05-04 21:08 | 37.77551 | -113.34862 | 38017 ft | 494 kts | 13° |
| 2026-05-04 21:08 | 37.83846 | -113.31280 | 38007 ft | 495 kts | 13° |
| 2026-05-04 21:09 | 37.90125 | -113.27703 | 38008 ft | 496 kts | 13° |
| 2026-05-04 21:09 | 37.96455 | -113.24092 | 37990 ft | 499 kts | 14° |
| 2026-05-04 21:10 | 38.02796 | -113.20459 | 38009 ft | 500 kts | 13° |
| 2026-05-04 21:10 | 38.09074 | -113.16859 | 38007 ft | 496 kts | 14° |
| 2026-05-04 21:11 | 38.15440 | -113.13206 | 37998 ft | 503 kts | 15° |
| 2026-05-04 21:11 | 38.21791 | -113.09551 | 37979 ft | 496 kts | 13° |
| 2026-05-04 21:12 | 38.28080 | -113.05928 | 37980 ft | 503 kts | 15° |
| 2026-05-04 21:12 | 38.34374 | -113.02290 | 37943 ft | 495 kts | 14° |
| 2026-05-04 21:13 | 38.40683 | -112.98852 | 37905 ft | 490 kts | 12° |
| 2026-05-04 21:13 | 38.46947 | -112.95519 | 37907 ft | 485 kts | 12° |
| 2026-05-04 21:14 | 38.53236 | -112.92168 | 37956 ft | 496 kts | 12° |
| 2026-05-04 21:14 | 38.59668 | -112.88731 | 37754 ft | 513 kts | 12° |
| 2026-05-04 21:15 | 38.63001 | -112.86951 | 37179 ft | 531 kts | 14° |
| 2026-05-04 21:15 | 38.66416 | -112.85116 | 36581 ft | 532 kts | 14° |
| 2026-05-04 21:15 | 38.69825 | -112.83282 | 35985 ft | 528 kts | 13° |
| 2026-05-04 21:15 | 38.73190 | -112.81477 | 35388 ft | 520 kts | 14° |
| 2026-05-04 21:16 | 38.76535 | -112.79679 | 34826 ft | 520 kts | 14° |
| 2026-05-04 21:16 | 38.79859 | -112.77890 | 34255 ft | 520 kts | 14° |
| 2026-05-04 21:16 | 38.83207 | -112.76088 | 33680 ft | 519 kts | 15° |
| 2026-05-04 21:16 | 38.86508 | -112.74307 | 33147 ft | 515 kts | 15° |
| 2026-05-04 21:17 | 38.89832 | -112.72513 | 32588 ft | 518 kts | 16° |
| 2026-05-04 21:17 | 38.93122 | -112.70734 | 31999 ft | 510 kts | 17° |
| 2026-05-04 21:17 | 38.96400 | -112.68962 | 31425 ft | 502 kts | 17° |
| 2026-05-04 21:17 | 38.99594 | -112.67231 | 30874 ft | 491 kts | 16° |
| 2026-05-04 21:18 | 39.02666 | -112.65566 | 30351 ft | 481 kts | 17° |
| 2026-05-04 21:18 | 39.05712 | -112.63914 | 29815 ft | 470 kts | 17° |
| 2026-05-04 21:18 | 39.08692 | -112.62296 | 29284 ft | 462 kts | 17° |
| 2026-05-04 21:18 | 39.11647 | -112.60692 | 28780 ft | 461 kts | 18° |
| 2026-05-04 21:19 | 39.14605 | -112.59082 | 28255 ft | 459 kts | 18° |
| 2026-05-04 21:19 | 39.17542 | -112.57484 | 27743 ft | 457 kts | 18° |
| 2026-05-04 21:19 | 39.20420 | -112.55914 | 27250 ft | 451 kts | 18° |
| 2026-05-04 21:19 | 39.23317 | -112.54334 | 26742 ft | 448 kts | 18° |
| 2026-05-04 21:20 | 39.26164 | -112.52780 | 26228 ft | 445 kts | 19° |
| 2026-05-04 21:20 | 39.29000 | -112.51231 | 25741 ft | 441 kts | 20° |
| 2026-05-04 21:20 | 39.31811 | -112.49655 | 25246 ft | 438 kts | 21° |
| 2026-05-04 21:20 | 39.34572 | -112.48072 | 24763 ft | 434 kts | 21° |
| 2026-05-04 21:21 | 39.37303 | -112.46508 | 24287 ft | 431 kts | 21° |
| 2026-05-04 21:21 | 39.40049 | -112.44933 | 23810 ft | 426 kts | 22° |
| 2026-05-04 21:21 | 39.42740 | -112.43387 | 23343 ft | 423 kts | 22° |
| 2026-05-04 21:21 | 39.45386 | -112.41867 | 22895 ft | 419 kts | 22° |
| 2026-05-04 21:22 | 39.48043 | -112.40338 | 22426 ft | 416 kts | 22° |
| 2026-05-04 21:22 | 39.50693 | -112.38813 | 21962 ft | 412 kts | 23° |
| 2026-05-04 21:22 | 39.53276 | -112.37326 | 21534 ft | 404 kts | 23° |
| 2026-05-04 21:22 | 39.55834 | -112.35851 | 21100 ft | 400 kts | 24° |
| 2026-05-04 21:23 | 39.58349 | -112.34400 | 20661 ft | 395 kts | 25° |
| 2026-05-04 21:23 | 39.60847 | -112.32957 | 20231 ft | 391 kts | 25° |
| 2026-05-04 21:23 | 39.63248 | -112.31570 | 19820 ft | 387 kts | 25° |
| 2026-05-04 21:23 | 39.65692 | -112.30157 | 19399 ft | 381 kts | 25° |
| 2026-05-04 21:24 | 39.68070 | -112.28781 | 18991 ft | 378 kts | 25° |
| 2026-05-04 21:24 | 39.70451 | -112.27402 | 18577 ft | 372 kts | 26° |
| 2026-05-04 21:24 | 39.72485 | -112.26224 | 18231 ft | 370 kts | 25° |
| 2026-05-04 21:24 | 39.72749 | -112.26071 | 18186 ft | 369 kts | 26° |
| 2026-05-04 21:25 | 39.76481 | -112.23907 | 17544 ft | 361 kts | 25° |
| 2026-05-04 21:25 | 39.78767 | -112.22579 | 17279 ft | 359 kts | 25° |
| 2026-05-04 21:25 | 39.81009 | -112.21277 | 16889 ft | 349 kts | 25° |
| 2026-05-04 21:25 | 39.83179 | -112.20015 | 16501 ft | 337 kts | 25° |
| 2026-05-04 21:26 | 39.85335 | -112.18761 | 16132 ft | 325 kts | 25° |
| 2026-05-04 21:26 | 39.87399 | -112.17559 | 15773 ft | 315 kts | 24° |
| 2026-05-04 21:26 | 39.89379 | -112.16406 | 15423 ft | 308 kts | 24° |
| 2026-05-04 21:26 | 39.91323 | -112.15273 | 15088 ft | 308 kts | 24° |
| 2026-05-04 21:27 | 39.92632 | -112.14510 | 14862 ft | 309 kts | 25° |
| 2026-05-04 21:27 | 39.95277 | -112.12966 | 14389 ft | 307 kts | 24° |
| 2026-05-04 21:27 | 39.97235 | -112.11870 | 14049 ft | 305 kts | 19° |
| 2026-05-04 21:27 | 39.99239 | -112.11056 | 14032 ft | 304 kts | 17° |
| 2026-05-04 21:28 | 40.01263 | -112.10249 | 14031 ft | 305 kts | 17° |
| 2026-05-04 21:28 | 40.03266 | -112.09450 | 14025 ft | 304 kts | 17° |
| 2026-05-04 21:28 | 40.05284 | -112.08646 | 14020 ft | 305 kts | 17° |
| 2026-05-04 21:28 | 40.07331 | -112.07831 | 14017 ft | 306 kts | 17° |
| 2026-05-04 21:29 | 40.09355 | -112.07023 | 14013 ft | 306 kts | 17° |
| 2026-05-04 21:29 | 40.11394 | -112.06209 | 14002 ft | 305 kts | 17° |
| 2026-05-04 21:29 | 40.13425 | -112.05398 | 13998 ft | 306 kts | 17° |
| 2026-05-04 21:29 | 40.15447 | -112.04590 | 13989 ft | 307 kts | 17° |
| 2026-05-04 21:30 | 40.17495 | -112.03770 | 13986 ft | 306 kts | 16° |
| 2026-05-04 21:30 | 40.19532 | -112.02956 | 13984 ft | 308 kts | 17° |
| 2026-05-04 21:30 | 40.21574 | -112.02138 | 13902 ft | 309 kts | 17° |
| 2026-05-04 21:30 | 40.23612 | -112.01321 | 13603 ft | 306 kts | 17° |
| 2026-05-04 21:31 | 40.27545 | -111.99744 | 12959 ft | 287 kts | 17° |
| 2026-05-04 21:31 | 40.29427 | -111.98989 | 12636 ft | 279 kts | 17° |
| 2026-05-04 21:31 | 40.31261 | -111.98252 | 12338 ft | 275 kts | 16° |
| 2026-05-04 21:32 | 40.33096 | -111.97514 | 12041 ft | 275 kts | 16° |
| 2026-05-04 21:32 | 40.34922 | -111.96781 | 11745 ft | 275 kts | 16° |
| 2026-05-04 21:32 | 40.36726 | -111.96055 | 11449 ft | 273 kts | 16° |
| 2026-05-04 21:32 | 40.38541 | -111.95342 | 11140 ft | 275 kts | 11° |
| 2026-05-04 21:33 | 40.40461 | -111.95312 | 11045 ft | 273 kts | 355° |
| 2026-05-04 21:33 | 40.42351 | -111.95511 | 10839 ft | 279 kts | 355° |
| 2026-05-04 21:33 | 40.44310 | -111.95723 | 10549 ft | 280 kts | 355° |
| 2026-05-04 21:33 | 40.46242 | -111.95933 | 10285 ft | 277 kts | 354° |
| 2026-05-04 21:34 | 40.48133 | -111.96146 | 9949 ft | 271 kts | 354° |
| 2026-05-04 21:34 | 40.49999 | -111.96361 | 9599 ft | 271 kts | 353° |
| 2026-05-04 21:34 | 40.51870 | -111.96576 | 9259 ft | 268 kts | 353° |
| 2026-05-04 21:34 | 40.53722 | -111.96790 | 8892 ft | 265 kts | 353° |
| 2026-05-04 21:35 | 40.55532 | -111.96998 | 8545 ft | 260 kts | 353° |
| 2026-05-04 21:35 | 40.57304 | -111.97201 | 8262 ft | 252 kts | 353° |
| 2026-05-04 21:35 | 40.59039 | -111.97401 | 7846 ft | 246 kts | 353° |
| 2026-05-04 21:35 | 40.60705 | -111.97594 | 7533 ft | 235 kts | 352° |
| 2026-05-04 21:36 | 40.62319 | -111.97781 | 7244 ft | 231 kts | 352° |
| 2026-05-04 21:36 | 40.63897 | -111.97965 | 6974 ft | 224 kts | 352° |
| 2026-05-04 21:36 | 40.65432 | -111.98142 | 6672 ft | 219 kts | 352° |
| 2026-05-04 21:36 | 40.66911 | -111.98312 | 6344 ft | 206 kts | 351° |
| 2026-05-04 21:37 | 40.68277 | -111.98470 | 6040 ft | 189 kts | 351° |
| 2026-05-04 21:37 | 40.69509 | -111.98611 | 5889 ft | 166 kts | 351° |
| 2026-05-04 21:37 | 40.70616 | -111.98740 | 5609 ft | 155 kts | 351° |
| 2026-05-04 21:37 | 40.71652 | -111.98860 | 5373 ft | 144 kts | 351° |
| 2026-05-04 21:38 | 40.72643 | -111.98976 | 5186 ft | 142 kts | 351° |
| 2026-05-04 21:38 | 40.73639 | -111.99089 | 5029 ft | 142 kts | 351° |
| 2026-05-04 21:38 | 40.74628 | -111.99194 | 4841 ft | 144 kts | 351° |
| 2026-05-04 21:38 | 40.75619 | -111.99322 | 4647 ft | 143 kts | 351° |
| 2026-05-04 21:39 | 40.76619 | -111.99440 | 4440 ft | 143 kts | 351° |
| 2026-05-04 21:39 | 40.77599 | -111.99559 | 4243 ft | 140 kts | 352° |
| 2026-05-04 21:39 | 40.78486 | -111.99663 | 4225 ft | 107 kts | 355° |
| 2026-05-04 21:39 | 40.79061 | -111.99731 | 4224 ft | 61 kts | 355° |
| 2026-05-04 21:40 | 40.79390 | -111.99732 | 4224 ft | 31 kts | 21° |
| 2026-05-04 21:40 | 40.79525 | -111.99614 | 4224 ft | 19 kts | 59° |
| 2026-05-04 21:40 | 40.79495 | -111.99470 | 4225 ft | 18 kts | 163° |
| 2026-05-04 21:40 | 40.79363 | -111.99451 | 4225 ft | 19 kts | 174° |
| 2026-05-04 21:41 | 40.79226 | -111.99435 | 4225 ft | 19 kts | 174° |
| 2026-05-04 21:41 | 40.79088 | -111.99419 | 4225 ft | 20 kts | 175° |
| 2026-05-04 21:41 | 40.78958 | -111.99404 | 4225 ft | 17 kts | 175° |
| 2026-05-04 21:41 | 40.78841 | -111.99390 | 4225 ft | 17 kts | 175° |
| 2026-05-04 21:42 | 40.78733 | -111.99354 | 4225 ft | 15 kts | 127° |
| 2026-05-04 21:42 | 40.78725 | -111.99215 | 4226 ft | 15 kts | 84° |
| 2026-05-04 21:42 | 40.78734 | -111.99079 | 4226 ft | 11 kts | 83° |
| 2026-05-04 21:42 | 40.78788 | -111.99050 | 4226 ft | 8 kts | 354° |
| 2026-05-04 21:43 | 40.78816 | -111.99053 | 4226 ft | 0 kts | 355° |
| 2026-05-04 21:43 | 40.78817 | -111.99053 | 4226 ft | 0 kts | 355° |